sensor_id;sensor_type;location;lat;lon;timestamp;P1;durP1;ratioP1;P2;durP2;ratioP2
6452;SDS011;3259;51.080;13.712;2023-04-01T00:01:56;0.20;;;0.20;;
6452;SDS011;3259;51.080;13.712;2023-04-01T00:04:44;2.28;;;0.20;;
6452;SDS011;3259;51.080;13.712;2023-04-01T00:07:33;1.55;;;0.20;;
6452;SDS011;3259;51.080;13.712;2023-04-01T00:10:22;0.75;;;0.13;;
6452;SDS011;3259;51.080;13.712;2023-04-01T00:13:12;0.47;;;0.20;;
6452;SDS011;3259;51.080;13.712;2023-04-01T00:16:01;0.65;;;0.20;;
6452;SDS011;3259;51.080;13.712;2023-04-01T00:19:05;0.47;;;0.15;;
6452;SDS011;3259;51.080;13.712;2023-04-01T00:21:54;0.20;;;0.10;;
6452;SDS011;3259;51.080;13.712;2023-04-01T00:24:43;0.20;;;0.20;;
6452;SDS011;3259;51.080;13.712;2023-04-01T00:27:32;0.17;;;0.05;;
6452;SDS011;3259;51.080;13.712;2023-04-01T00:30:22;0.95;;;0.20;;
6452;SDS011;3259;51.080;13.712;2023-04-01T00:33:11;1.50;;;0.20;;
6452;SDS011;3259;51.080;13.712;2023-04-01T00:36:05;0.30;;;0.30;;
6452;SDS011;3259;51.080;13.712;2023-04-01T00:38:57;1.75;;;0.10;;
6452;SDS011;3259;51.080;13.712;2023-04-01T00:41:46;0.65;;;0.08;;
6452;SDS011;3259;51.080;13.712;2023-04-01T00:44:36;0.03;;;0.00;;
6452;SDS011;3259;51.080;13.712;2023-04-01T00:47:26;0.10;;;0.10;;
6452;SDS011;3259;51.080;13.712;2023-04-01T00:50:15;0.00;;;0.00;;
6452;SDS011;3259;51.080;13.712;2023-04-01T00:53:04;0.43;;;0.43;;
6452;SDS011;3259;51.080;13.712;2023-04-01T00:55:54;0.15;;;0.10;;
6452;SDS011;3259;51.080;13.712;2023-04-01T00:58:46;0.10;;;0.10;;
6452;SDS011;3259;51.080;13.712;2023-04-01T01:01:37;0.35;;;0.10;;
6452;SDS011;3259;51.080;13.712;2023-04-01T01:04:28;0.20;;;0.20;;
6452;SDS011;3259;51.080;13.712;2023-04-01T01:07:20;0.10;;;0.10;;
6452;SDS011;3259;51.080;13.712;2023-04-01T01:10:15;0.50;;;0.10;;
6452;SDS011;3259;51.080;13.712;2023-04-01T01:13:09;2.00;;;0.40;;
6452;SDS011;3259;51.080;13.712;2023-04-01T01:15:59;0.38;;;0.10;;
6452;SDS011;3259;51.080;13.712;2023-04-01T01:18:52;0.65;;;0.10;;
6452;SDS011;3259;51.080;13.712;2023-04-01T01:21:49;0.00;;;0.00;;
6452;SDS011;3259;51.080;13.712;2023-04-01T01:24:51;1.02;;;0.10;;
6452;SDS011;3259;51.080;13.712;2023-04-01T01:27:48;0.10;;;0.00;;
6452;SDS011;3259;51.080;13.712;2023-04-01T01:30:43;0.45;;;0.10;;
6452;SDS011;3259;51.080;13.712;2023-04-01T01:33:36;0.80;;;0.00;;
6452;SDS011;3259;51.080;13.712;2023-04-01T01:36:36;0.68;;;0.10;;
6452;SDS011;3259;51.080;13.712;2023-04-01T01:39:26;1.25;;;0.10;;
6452;SDS011;3259;51.080;13.712;2023-04-01T01:42:16;0.68;;;0.10;;
6452;SDS011;3259;51.080;13.712;2023-04-01T01:45:07;0.10;;;0.05;;
6452;SDS011;3259;51.080;13.712;2023-04-01T01:47:57;1.05;;;0.10;;
6452;SDS011;3259;51.080;13.712;2023-04-01T01:50:47;2.30;;;0.00;;
6452;SDS011;3259;51.080;13.712;2023-04-01T01:53:38;0.03;;;0.03;;
6452;SDS011;3259;51.080;13.712;2023-04-01T01:56:27;0.25;;;0.00;;
6452;SDS011;3259;51.080;13.712;2023-04-01T01:59:16;1.00;;;0.10;;
6452;SDS011;3259;51.080;13.712;2023-04-01T02:02:06;0.10;;;0.10;;
6452;SDS011;3259;51.080;13.712;2023-04-01T02:04:57;2.13;;;0.10;;
6452;SDS011;3259;51.080;13.712;2023-04-01T02:07:48;0.05;;;0.05;;
6452;SDS011;3259;51.080;13.712;2023-04-01T02:10:42;0.75;;;0.00;;
6452;SDS011;3259;51.080;13.712;2023-04-01T02:13:35;0.63;;;0.10;;
6452;SDS011;3259;51.080;13.712;2023-04-01T02:16:27;1.15;;;0.08;;
6452;SDS011;3259;51.080;13.712;2023-04-01T02:19:17;2.78;;;0.10;;
6452;SDS011;3259;51.080;13.712;2023-04-01T02:22:10;0.20;;;0.10;;
6452;SDS011;3259;51.080;13.712;2023-04-01T02:25:03;4.70;;;0.13;;
6452;SDS011;3259;51.080;13.712;2023-04-01T02:27:55;0.20;;;0.00;;
6452;SDS011;3259;51.080;13.712;2023-04-01T02:30:45;0.38;;;0.20;;
6452;SDS011;3259;51.080;13.712;2023-04-01T02:33:35;1.48;;;0.00;;
6452;SDS011;3259;51.080;13.712;2023-04-01T02:36:25;0.00;;;0.00;;
6452;SDS011;3259;51.080;13.712;2023-04-01T02:39:14;3.92;;;0.13;;
6452;SDS011;3259;51.080;13.712;2023-04-01T02:42:02;3.53;;;0.17;;
6452;SDS011;3259;51.080;13.712;2023-04-01T02:44:53;1.60;;;0.10;;
6452;SDS011;3259;51.080;13.712;2023-04-01T02:47:41;1.17;;;0.10;;
6452;SDS011;3259;51.080;13.712;2023-04-01T02:50:30;0.00;;;0.00;;
6452;SDS011;3259;51.080;13.712;2023-04-01T02:53:18;4.18;;;0.15;;
6452;SDS011;3259;51.080;13.712;2023-04-01T02:56:07;0.22;;;0.10;;
6452;SDS011;3259;51.080;13.712;2023-04-01T02:58:56;0.10;;;0.00;;
6452;SDS011;3259;51.080;13.712;2023-04-01T03:01:46;0.00;;;0.00;;
6452;SDS011;3259;51.080;13.712;2023-04-01T03:04:34;0.90;;;0.10;;
6452;SDS011;3259;51.080;13.712;2023-04-01T03:07:23;1.65;;;0.10;;
6452;SDS011;3259;51.080;13.712;2023-04-01T03:10:12;0.20;;;0.10;;
6452;SDS011;3259;51.080;13.712;2023-04-01T03:13:01;0.00;;;0.00;;
6452;SDS011;3259;51.080;13.712;2023-04-01T03:15:49;2.30;;;0.13;;
6452;SDS011;3259;51.080;13.712;2023-04-01T03:18:39;0.30;;;0.10;;
6452;SDS011;3259;51.080;13.712;2023-04-01T03:21:28;0.10;;;0.10;;
6452;SDS011;3259;51.080;13.712;2023-04-01T03:24:17;0.10;;;0.00;;
6452;SDS011;3259;51.080;13.712;2023-04-01T03:27:05;0.00;;;0.00;;
6452;SDS011;3259;51.080;13.712;2023-04-01T03:29:54;0.65;;;0.08;;
6452;SDS011;3259;51.080;13.712;2023-04-01T03:32:42;0.20;;;0.20;;
6452;SDS011;3259;51.080;13.712;2023-04-01T03:35:32;0.10;;;0.00;;
6452;SDS011;3259;51.080;13.712;2023-04-01T03:38:22;0.00;;;0.00;;
6452;SDS011;3259;51.080;13.712;2023-04-01T03:41:11;0.10;;;0.10;;
6452;SDS011;3259;51.080;13.712;2023-04-01T03:44:01;0.00;;;0.00;;
6452;SDS011;3259;51.080;13.712;2023-04-01T03:46:49;0.15;;;0.03;;
6452;SDS011;3259;51.080;13.712;2023-04-01T03:49:38;0.38;;;0.25;;
6452;SDS011;3259;51.080;13.712;2023-04-01T03:52:28;0.10;;;0.10;;
6452;SDS011;3259;51.080;13.712;2023-04-01T03:55:16;0.93;;;0.10;;
6452;SDS011;3259;51.080;13.712;2023-04-01T03:58:06;0.40;;;0.20;;
6452;SDS011;3259;51.080;13.712;2023-04-01T04:00:55;0.38;;;0.10;;
6452;SDS011;3259;51.080;13.712;2023-04-01T04:03:43;0.10;;;0.00;;
6452;SDS011;3259;51.080;13.712;2023-04-01T04:06:32;0.47;;;0.00;;
6452;SDS011;3259;51.080;13.712;2023-04-01T04:09:25;2.53;;;0.10;;
6452;SDS011;3259;51.080;13.712;2023-04-01T04:12:13;1.58;;;0.10;;
6452;SDS011;3259;51.080;13.712;2023-04-01T04:15:02;0.00;;;0.00;;
6452;SDS011;3259;51.080;13.712;2023-04-01T04:17:51;0.08;;;0.08;;
6452;SDS011;3259;51.080;13.712;2023-04-01T04:20:43;0.00;;;0.00;;
6452;SDS011;3259;51.080;13.712;2023-04-01T04:23:33;0.17;;;0.00;;
6452;SDS011;3259;51.080;13.712;2023-04-01T04:26:25;0.05;;;0.05;;
6452;SDS011;3259;51.080;13.712;2023-04-01T04:29:14;0.63;;;0.35;;
6452;SDS011;3259;51.080;13.712;2023-04-01T04:32:03;0.65;;;0.00;;
6452;SDS011;3259;51.080;13.712;2023-04-01T04:34:52;0.00;;;0.00;;
6452;SDS011;3259;51.080;13.712;2023-04-01T04:37:40;0.10;;;0.00;;
6452;SDS011;3259;51.080;13.712;2023-04-01T04:40:29;1.55;;;0.00;;
6452;SDS011;3259;51.080;13.712;2023-04-01T04:43:19;0.10;;;0.10;;
6452;SDS011;3259;51.080;13.712;2023-04-01T04:46:08;0.10;;;0.10;;
6452;SDS011;3259;51.080;13.712;2023-04-01T04:48:57;0.10;;;0.10;;
6452;SDS011;3259;51.080;13.712;2023-04-01T04:51:46;1.00;;;0.00;;
6452;SDS011;3259;51.080;13.712;2023-04-01T04:54:34;0.50;;;0.00;;
6452;SDS011;3259;51.080;13.712;2023-04-01T04:57:23;0.00;;;0.00;;
6452;SDS011;3259;51.080;13.712;2023-04-01T05:00:13;0.00;;;0.00;;
6452;SDS011;3259;51.080;13.712;2023-04-01T05:03:02;0.10;;;0.03;;
6452;SDS011;3259;51.080;13.712;2023-04-01T05:05:52;0.00;;;0.00;;
6452;SDS011;3259;51.080;13.712;2023-04-01T05:08:42;0.75;;;0.00;;
6452;SDS011;3259;51.080;13.712;2023-04-01T05:11:31;0.10;;;0.00;;
6452;SDS011;3259;51.080;13.712;2023-04-01T05:14:19;1.42;;;0.03;;
6452;SDS011;3259;51.080;13.712;2023-04-01T05:17:10;4.15;;;0.08;;
6452;SDS011;3259;51.080;13.712;2023-04-01T05:19:59;0.20;;;0.10;;
6452;SDS011;3259;51.080;13.712;2023-04-01T05:22:48;0.00;;;0.00;;
6452;SDS011;3259;51.080;13.712;2023-04-01T05:25:37;0.65;;;0.10;;
6452;SDS011;3259;51.080;13.712;2023-04-01T05:28:26;0.70;;;0.00;;
6452;SDS011;3259;51.080;13.712;2023-04-01T05:31:14;0.93;;;0.00;;
6452;SDS011;3259;51.080;13.712;2023-04-01T05:34:04;0.10;;;0.00;;
6452;SDS011;3259;51.080;13.712;2023-04-01T05:36:53;0.25;;;0.10;;
6452;SDS011;3259;51.080;13.712;2023-04-01T05:39:42;0.00;;;0.00;;
6452;SDS011;3259;51.080;13.712;2023-04-01T05:42:30;1.00;;;0.20;;
6452;SDS011;3259;51.080;13.712;2023-04-01T05:45:22;0.00;;;0.00;;
6452;SDS011;3259;51.080;13.712;2023-04-01T05:48:11;0.00;;;0.00;;
6452;SDS011;3259;51.080;13.712;2023-04-01T05:51:01;0.57;;;0.30;;
6452;SDS011;3259;51.080;13.712;2023-04-01T05:53:50;1.13;;;0.10;;
6452;SDS011;3259;51.080;13.712;2023-04-01T05:56:39;0.35;;;0.08;;
6452;SDS011;3259;51.080;13.712;2023-04-01T05:59:28;0.30;;;0.00;;
6452;SDS011;3259;51.080;13.712;2023-04-01T06:02:17;0.00;;;0.00;;
6452;SDS011;3259;51.080;13.712;2023-04-01T06:05:11;0.52;;;0.20;;
6452;SDS011;3259;51.080;13.712;2023-04-01T06:08:05;0.30;;;0.10;;
6452;SDS011;3259;51.080;13.712;2023-04-01T06:11:03;0.10;;;0.03;;
6452;SDS011;3259;51.080;13.712;2023-04-01T06:14:10;0.98;;;0.00;;
6452;SDS011;3259;51.080;13.712;2023-04-01T06:17:07;0.30;;;0.10;;
6452;SDS011;3259;51.080;13.712;2023-04-01T06:20:06;0.40;;;0.00;;
6452;SDS011;3259;51.080;13.712;2023-04-01T06:23:08;0.00;;;0.00;;
6452;SDS011;3259;51.080;13.712;2023-04-01T06:29:25;1.15;;;0.03;;
6452;SDS011;3259;51.080;13.712;2023-04-01T06:32:27;0.35;;;0.00;;
6452;SDS011;3259;51.080;13.712;2023-04-01T06:35:55;0.57;;;0.00;;
6452;SDS011;3259;51.080;13.712;2023-04-01T06:39:06;0.57;;;0.10;;
6452;SDS011;3259;51.080;13.712;2023-04-01T06:42:23;0.30;;;0.00;;
6452;SDS011;3259;51.080;13.712;2023-04-01T06:45:24;0.15;;;0.13;;
6452;SDS011;3259;51.080;13.712;2023-04-01T06:48:27;2.28;;;0.10;;
6452;SDS011;3259;51.080;13.712;2023-04-01T06:51:30;1.38;;;0.25;;
6452;SDS011;3259;51.080;13.712;2023-04-01T06:54:26;2.72;;;0.40;;
6452;SDS011;3259;51.080;13.712;2023-04-01T06:57:20;3.65;;;0.20;;
6452;SDS011;3259;51.080;13.712;2023-04-01T07:00:13;7.40;;;0.30;;
6452;SDS011;3259;51.080;13.712;2023-04-01T07:03:16;3.63;;;0.20;;
6452;SDS011;3259;51.080;13.712;2023-04-01T07:06:14;1.52;;;0.28;;
6452;SDS011;3259;51.080;13.712;2023-04-01T07:09:09;2.20;;;0.32;;
6452;SDS011;3259;51.080;13.712;2023-04-01T07:12:02;1.42;;;0.20;;
6452;SDS011;3259;51.080;13.712;2023-04-01T07:14:56;4.03;;;0.20;;
6452;SDS011;3259;51.080;13.712;2023-04-01T07:17:47;7.90;;;0.30;;
6452;SDS011;3259;51.080;13.712;2023-04-01T07:20:38;2.13;;;0.47;;
6452;SDS011;3259;51.080;13.712;2023-04-01T07:23:28;1.08;;;0.63;;
6452;SDS011;3259;51.080;13.712;2023-04-01T07:26:20;2.38;;;0.32;;
6452;SDS011;3259;51.080;13.712;2023-04-01T07:29:11;9.52;;;0.50;;
6452;SDS011;3259;51.080;13.712;2023-04-01T07:32:05;1.20;;;0.47;;
6452;SDS011;3259;51.080;13.712;2023-04-01T07:35:01;0.32;;;0.17;;
6452;SDS011;3259;51.080;13.712;2023-04-01T07:37:59;4.00;;;0.52;;
6452;SDS011;3259;51.080;13.712;2023-04-01T07:40:55;1.45;;;0.20;;
6452;SDS011;3259;51.080;13.712;2023-04-01T07:47:01;0.68;;;0.35;;
6452;SDS011;3259;51.080;13.712;2023-04-01T07:50:00;0.82;;;0.10;;
6452;SDS011;3259;51.080;13.712;2023-04-01T07:52:57;1.20;;;0.30;;
6452;SDS011;3259;51.080;13.712;2023-04-01T07:55:50;11.43;;;1.05;;
6452;SDS011;3259;51.080;13.712;2023-04-01T07:58:46;32.50;;;1.48;;
6452;SDS011;3259;51.080;13.712;2023-04-01T08:01:40;7.40;;;0.98;;
6452;SDS011;3259;51.080;13.712;2023-04-01T08:04:38;5.13;;;0.52;;
6452;SDS011;3259;51.080;13.712;2023-04-01T08:07:33;10.85;;;0.68;;
6452;SDS011;3259;51.080;13.712;2023-04-01T08:10:27;6.28;;;0.93;;
6452;SDS011;3259;51.080;13.712;2023-04-01T08:13:23;8.82;;;1.65;;
6452;SDS011;3259;51.080;13.712;2023-04-01T08:16:19;5.57;;;0.68;;
6452;SDS011;3259;51.080;13.712;2023-04-01T08:19:10;8.02;;;0.63;;
6452;SDS011;3259;51.080;13.712;2023-04-01T08:22:09;4.05;;;0.70;;
6452;SDS011;3259;51.080;13.712;2023-04-01T08:25:00;4.40;;;0.40;;
6452;SDS011;3259;51.080;13.712;2023-04-01T08:27:53;1.23;;;0.38;;
6452;SDS011;3259;51.080;13.712;2023-04-01T08:30:45;3.65;;;0.52;;
6452;SDS011;3259;51.080;13.712;2023-04-01T08:33:36;3.13;;;0.52;;
6452;SDS011;3259;51.080;13.712;2023-04-01T08:36:26;3.55;;;0.57;;
6452;SDS011;3259;51.080;13.712;2023-04-01T08:39:19;4.53;;;0.65;;
6452;SDS011;3259;51.080;13.712;2023-04-01T08:42:13;1.88;;;0.40;;
6452;SDS011;3259;51.080;13.712;2023-04-01T08:45:28;1.70;;;0.50;;
6452;SDS011;3259;51.080;13.712;2023-04-01T08:48:36;2.72;;;0.70;;
6452;SDS011;3259;51.080;13.712;2023-04-01T08:51:54;1.85;;;0.45;;
6452;SDS011;3259;51.080;13.712;2023-04-01T08:55:04;1.77;;;0.65;;
6452;SDS011;3259;51.080;13.712;2023-04-01T08:58:20;3.25;;;0.73;;
6452;SDS011;3259;51.080;13.712;2023-04-01T09:01:21;2.55;;;0.47;;
6452;SDS011;3259;51.080;13.712;2023-04-01T09:04:25;3.75;;;0.28;;
6452;SDS011;3259;51.080;13.712;2023-04-01T09:07:21;1.45;;;0.40;;
6452;SDS011;3259;51.080;13.712;2023-04-01T09:10:25;1.10;;;0.28;;
6452;SDS011;3259;51.080;13.712;2023-04-01T09:16:53;0.50;;;0.30;;
6452;SDS011;3259;51.080;13.712;2023-04-01T09:23:24;2.85;;;0.50;;
6452;SDS011;3259;51.080;13.712;2023-04-01T09:26:39;1.10;;;0.25;;
6452;SDS011;3259;51.080;13.712;2023-04-01T09:29:49;2.20;;;0.50;;
6452;SDS011;3259;51.080;13.712;2023-04-01T09:32:51;0.70;;;0.40;;
6452;SDS011;3259;51.080;13.712;2023-04-01T09:36:02;0.22;;;0.22;;
6452;SDS011;3259;51.080;13.712;2023-04-01T09:38:55;0.10;;;0.10;;
6452;SDS011;3259;51.080;13.712;2023-04-01T09:41:48;1.50;;;0.30;;
6452;SDS011;3259;51.080;13.712;2023-04-01T09:45:03;0.65;;;0.50;;
6452;SDS011;3259;51.080;13.712;2023-04-01T09:47:58;0.10;;;0.10;;
6452;SDS011;3259;51.080;13.712;2023-04-01T09:50:56;0.75;;;0.30;;
6452;SDS011;3259;51.080;13.712;2023-04-01T09:53:58;0.30;;;0.20;;
6452;SDS011;3259;51.080;13.712;2023-04-01T09:57:06;0.38;;;0.10;;
6452;SDS011;3259;51.080;13.712;2023-04-01T10:00:10;1.27;;;0.22;;
6452;SDS011;3259;51.080;13.712;2023-04-01T10:03:23;0.40;;;0.22;;
6452;SDS011;3259;51.080;13.712;2023-04-01T10:13:15;0.30;;;0.20;;
6452;SDS011;3259;51.080;13.712;2023-04-01T10:16:26;0.28;;;0.10;;
6452;SDS011;3259;51.080;13.712;2023-04-01T10:19:44;1.45;;;0.13;;
6452;SDS011;3259;51.080;13.712;2023-04-01T10:26:22;0.10;;;0.10;;
6452;SDS011;3259;51.080;13.712;2023-04-01T10:29:33;0.20;;;0.10;;
6452;SDS011;3259;51.080;13.712;2023-04-01T10:39:33;0.32;;;0.10;;
6452;SDS011;3259;51.080;13.712;2023-04-01T10:46:17;0.10;;;0.10;;
6452;SDS011;3259;51.080;13.712;2023-04-01T11:17:15;0.20;;;0.13;;
6452;SDS011;3259;51.080;13.712;2023-04-01T11:20:41;0.88;;;0.10;;
6452;SDS011;3259;51.080;13.712;2023-04-01T11:23:53;0.75;;;0.10;;
6452;SDS011;3259;51.080;13.712;2023-04-01T11:26:52;0.55;;;0.08;;
6452;SDS011;3259;51.080;13.712;2023-04-01T11:29:51;0.35;;;0.00;;
6452;SDS011;3259;51.080;13.712;2023-04-01T11:32:51;0.90;;;0.10;;
6452;SDS011;3259;51.080;13.712;2023-04-01T11:35:46;0.60;;;0.00;;
6452;SDS011;3259;51.080;13.712;2023-04-01T11:38:53;0.10;;;0.10;;
6452;SDS011;3259;51.080;13.712;2023-04-01T11:41:50;0.00;;;0.00;;
6452;SDS011;3259;51.080;13.712;2023-04-01T11:44:43;0.35;;;0.10;;
6452;SDS011;3259;51.080;13.712;2023-04-01T11:47:42;0.10;;;0.10;;
6452;SDS011;3259;51.080;13.712;2023-04-01T11:50:39;0.30;;;0.00;;
6452;SDS011;3259;51.080;13.712;2023-04-01T11:53:37;0.10;;;0.10;;
6452;SDS011;3259;51.080;13.712;2023-04-01T11:56:46;0.38;;;0.10;;
6452;SDS011;3259;51.080;13.712;2023-04-01T12:00:00;0.55;;;0.10;;
6452;SDS011;3259;51.080;13.712;2023-04-01T12:02:55;0.15;;;0.10;;
6452;SDS011;3259;51.080;13.712;2023-04-01T12:06:00;0.55;;;0.10;;
6452;SDS011;3259;51.080;13.712;2023-04-01T12:08:51;0.00;;;0.00;;
6452;SDS011;3259;51.080;13.712;2023-04-01T12:11:52;0.40;;;0.10;;
6452;SDS011;3259;51.080;13.712;2023-04-01T12:14:54;2.20;;;0.10;;
6452;SDS011;3259;51.080;13.712;2023-04-01T12:17:49;1.75;;;0.20;;
6452;SDS011;3259;51.080;13.712;2023-04-01T12:20:43;0.10;;;0.10;;
6452;SDS011;3259;51.080;13.712;2023-04-01T12:23:41;0.13;;;0.10;;
6452;SDS011;3259;51.080;13.712;2023-04-01T12:26:56;0.00;;;0.00;;
6452;SDS011;3259;51.080;13.712;2023-04-01T12:29:58;0.00;;;0.00;;
6452;SDS011;3259;51.080;13.712;2023-04-01T12:33:18;0.00;;;0.00;;
6452;SDS011;3259;51.080;13.712;2023-04-01T12:36:31;0.10;;;0.10;;
6452;SDS011;3259;51.080;13.712;2023-04-01T12:39:33;0.00;;;0.00;;
6452;SDS011;3259;51.080;13.712;2023-04-01T12:42:43;1.38;;;0.10;;
6452;SDS011;3259;51.080;13.712;2023-04-01T12:45:38;0.20;;;0.10;;
6452;SDS011;3259;51.080;13.712;2023-04-01T12:48:43;0.30;;;0.00;;
6452;SDS011;3259;51.080;13.712;2023-04-01T12:51:51;0.20;;;0.00;;
6452;SDS011;3259;51.080;13.712;2023-04-01T12:54:52;0.00;;;0.00;;
6452;SDS011;3259;51.080;13.712;2023-04-01T12:58:03;0.10;;;0.10;;
6452;SDS011;3259;51.080;13.712;2023-04-01T13:01:19;0.00;;;0.00;;
6452;SDS011;3259;51.080;13.712;2023-04-01T13:07:39;0.00;;;0.00;;
6452;SDS011;3259;51.080;13.712;2023-04-01T13:10:51;0.00;;;0.00;;
6452;SDS011;3259;51.080;13.712;2023-04-01T13:17:18;0.00;;;0.00;;
6452;SDS011;3259;51.080;13.712;2023-04-01T13:20:13;0.00;;;0.00;;
6452;SDS011;3259;51.080;13.712;2023-04-01T13:23:07;0.50;;;0.00;;
6452;SDS011;3259;51.080;13.712;2023-04-01T13:26:06;0.10;;;0.00;;
6452;SDS011;3259;51.080;13.712;2023-04-01T13:29:03;0.00;;;0.00;;
6452;SDS011;3259;51.080;13.712;2023-04-01T13:31:57;0.60;;;0.00;;
6452;SDS011;3259;51.080;13.712;2023-04-01T13:34:55;0.00;;;0.00;;
6452;SDS011;3259;51.080;13.712;2023-04-01T13:37:58;0.05;;;0.05;;
6452;SDS011;3259;51.080;13.712;2023-04-01T13:40:54;0.00;;;0.00;;
6452;SDS011;3259;51.080;13.712;2023-04-01T13:43:51;1.48;;;0.00;;
6452;SDS011;3259;51.080;13.712;2023-04-01T13:46:50;0.00;;;0.00;;
6452;SDS011;3259;51.080;13.712;2023-04-01T13:56:12;0.00;;;0.00;;
6452;SDS011;3259;51.080;13.712;2023-04-01T13:59:27;0.10;;;0.00;;
6452;SDS011;3259;51.080;13.712;2023-04-01T14:02:29;0.03;;;0.03;;
6452;SDS011;3259;51.080;13.712;2023-04-01T14:05:37;0.00;;;0.00;;
6452;SDS011;3259;51.080;13.712;2023-04-01T14:08:35;0.00;;;0.00;;
6452;SDS011;3259;51.080;13.712;2023-04-01T14:11:32;0.25;;;0.00;;
6452;SDS011;3259;51.080;13.712;2023-04-01T14:14:30;0.00;;;0.00;;
6452;SDS011;3259;51.080;13.712;2023-04-01T14:17:37;0.00;;;0.00;;
6452;SDS011;3259;51.080;13.712;2023-04-01T14:20:34;0.00;;;0.00;;
6452;SDS011;3259;51.080;13.712;2023-04-01T14:23:42;0.10;;;0.00;;
6452;SDS011;3259;51.080;13.712;2023-04-01T14:30:16;3.30;;;0.00;;
6452;SDS011;3259;51.080;13.712;2023-04-01T14:33:28;0.00;;;0.00;;
6452;SDS011;3259;51.080;13.712;2023-04-01T14:36:29;0.00;;;0.00;;
6452;SDS011;3259;51.080;13.712;2023-04-01T14:39:46;0.00;;;0.00;;
6452;SDS011;3259;51.080;13.712;2023-04-01T14:42:46;0.00;;;0.00;;
6452;SDS011;3259;51.080;13.712;2023-04-01T14:46:08;0.03;;;0.03;;
6452;SDS011;3259;51.080;13.712;2023-04-01T14:49:17;0.65;;;0.00;;
6452;SDS011;3259;51.080;13.712;2023-04-01T14:52:10;0.77;;;0.08;;
6452;SDS011;3259;51.080;13.712;2023-04-01T14:55:02;0.00;;;0.00;;
6452;SDS011;3259;51.080;13.712;2023-04-01T14:58:10;0.28;;;0.10;;
6452;SDS011;3259;51.080;13.712;2023-04-01T15:01:04;0.00;;;0.00;;
6452;SDS011;3259;51.080;13.712;2023-04-01T15:04:02;0.22;;;0.00;;
6452;SDS011;3259;51.080;13.712;2023-04-01T15:07:08;0.00;;;0.00;;
6452;SDS011;3259;51.080;13.712;2023-04-01T15:10:34;0.13;;;0.00;;
6452;SDS011;3259;51.080;13.712;2023-04-01T15:13:49;0.00;;;0.00;;
6452;SDS011;3259;51.080;13.712;2023-04-01T15:16:49;0.00;;;0.00;;
6452;SDS011;3259;51.080;13.712;2023-04-01T15:19:54;0.45;;;0.00;;
6452;SDS011;3259;51.080;13.712;2023-04-01T15:22:56;0.10;;;0.05;;
6452;SDS011;3259;51.080;13.712;2023-04-01T15:26:01;0.30;;;0.00;;
6452;SDS011;3259;51.080;13.712;2023-04-01T15:29:26;1.20;;;0.00;;
6452;SDS011;3259;51.080;13.712;2023-04-01T15:32:29;0.00;;;0.00;;
6452;SDS011;3259;51.080;13.712;2023-04-01T15:35:30;0.00;;;0.00;;
6452;SDS011;3259;51.080;13.712;2023-04-01T15:38:29;0.00;;;0.00;;
6452;SDS011;3259;51.080;13.712;2023-04-01T15:41:22;0.05;;;0.05;;
6452;SDS011;3259;51.080;13.712;2023-04-01T15:44:40;0.00;;;0.00;;
6452;SDS011;3259;51.080;13.712;2023-04-01T15:47:38;0.00;;;0.00;;
6452;SDS011;3259;51.080;13.712;2023-04-01T15:50:38;0.15;;;0.10;;
6452;SDS011;3259;51.080;13.712;2023-04-01T15:57:06;0.20;;;0.00;;
6452;SDS011;3259;51.080;13.712;2023-04-01T16:00:06;1.02;;;0.00;;
6452;SDS011;3259;51.080;13.712;2023-04-01T16:09:16;0.00;;;0.00;;
6452;SDS011;3259;51.080;13.712;2023-04-01T16:12:14;0.00;;;0.00;;
6452;SDS011;3259;51.080;13.712;2023-04-01T16:15:08;0.25;;;0.00;;
6452;SDS011;3259;51.080;13.712;2023-04-01T16:18:14;1.15;;;0.00;;
6452;SDS011;3259;51.080;13.712;2023-04-01T16:21:21;0.10;;;0.00;;
6452;SDS011;3259;51.080;13.712;2023-04-01T16:24:17;0.00;;;0.00;;
6452;SDS011;3259;51.080;13.712;2023-04-01T16:27:12;0.00;;;0.00;;
6452;SDS011;3259;51.080;13.712;2023-04-01T16:30:03;0.35;;;0.00;;
6452;SDS011;3259;51.080;13.712;2023-04-01T16:33:10;0.00;;;0.00;;
6452;SDS011;3259;51.080;13.712;2023-04-01T16:36:07;0.00;;;0.00;;
6452;SDS011;3259;51.080;13.712;2023-04-01T16:39:08;0.00;;;0.00;;
6452;SDS011;3259;51.080;13.712;2023-04-01T16:42:11;0.00;;;0.00;;
6452;SDS011;3259;51.080;13.712;2023-04-01T16:45:15;0.00;;;0.00;;
6452;SDS011;3259;51.080;13.712;2023-04-01T16:48:10;0.32;;;0.00;;
6452;SDS011;3259;51.080;13.712;2023-04-01T16:51:01;0.40;;;0.00;;
6452;SDS011;3259;51.080;13.712;2023-04-01T16:53:54;0.00;;;0.00;;
6452;SDS011;3259;51.080;13.712;2023-04-01T16:56:54;0.00;;;0.00;;
6452;SDS011;3259;51.080;13.712;2023-04-01T16:59:45;0.30;;;0.00;;
6452;SDS011;3259;51.080;13.712;2023-04-01T17:02:37;0.00;;;0.00;;
6452;SDS011;3259;51.080;13.712;2023-04-01T17:05:34;0.00;;;0.00;;
6452;SDS011;3259;51.080;13.712;2023-04-01T17:08:30;0.00;;;0.00;;
6452;SDS011;3259;51.080;13.712;2023-04-01T17:11:26;0.28;;;0.00;;
6452;SDS011;3259;51.080;13.712;2023-04-01T17:14:18;0.00;;;0.00;;
6452;SDS011;3259;51.080;13.712;2023-04-01T17:17:14;0.00;;;0.00;;
6452;SDS011;3259;51.080;13.712;2023-04-01T17:20:14;0.00;;;0.00;;
6452;SDS011;3259;51.080;13.712;2023-04-01T17:23:18;1.55;;;0.00;;
6452;SDS011;3259;51.080;13.712;2023-04-01T17:29:21;0.00;;;0.00;;
6452;SDS011;3259;51.080;13.712;2023-04-01T17:32:14;0.00;;;0.00;;
6452;SDS011;3259;51.080;13.712;2023-04-01T17:35:08;0.00;;;0.00;;
6452;SDS011;3259;51.080;13.712;2023-04-01T17:38:04;0.00;;;0.00;;
6452;SDS011;3259;51.080;13.712;2023-04-01T17:41:01;0.00;;;0.00;;
6452;SDS011;3259;51.080;13.712;2023-04-01T17:43:58;0.40;;;0.00;;
6452;SDS011;3259;51.080;13.712;2023-04-01T17:46:59;0.10;;;0.00;;
6452;SDS011;3259;51.080;13.712;2023-04-01T17:50:02;0.00;;;0.00;;
6452;SDS011;3259;51.080;13.712;2023-04-01T17:53:03;0.20;;;0.00;;
6452;SDS011;3259;51.080;13.712;2023-04-01T17:56:12;0.00;;;0.00;;
6452;SDS011;3259;51.080;13.712;2023-04-01T17:59:07;0.00;;;0.00;;
6452;SDS011;3259;51.080;13.712;2023-04-01T18:02:03;0.00;;;0.00;;
6452;SDS011;3259;51.080;13.712;2023-04-01T18:05:13;0.10;;;0.00;;
6452;SDS011;3259;51.080;13.712;2023-04-01T18:08:30;0.00;;;0.00;;
6452;SDS011;3259;51.080;13.712;2023-04-01T18:11:33;0.00;;;0.00;;
6452;SDS011;3259;51.080;13.712;2023-04-01T18:14:37;0.00;;;0.00;;
6452;SDS011;3259;51.080;13.712;2023-04-01T18:17:40;0.00;;;0.00;;
6452;SDS011;3259;51.080;13.712;2023-04-01T18:20:32;0.00;;;0.00;;
6452;SDS011;3259;51.080;13.712;2023-04-01T18:23:27;0.00;;;0.00;;
6452;SDS011;3259;51.080;13.712;2023-04-01T18:26:20;0.00;;;0.00;;
6452;SDS011;3259;51.080;13.712;2023-04-01T18:29:13;0.00;;;0.00;;
6452;SDS011;3259;51.080;13.712;2023-04-01T18:32:22;0.00;;;0.00;;
6452;SDS011;3259;51.080;13.712;2023-04-01T18:35:17;0.00;;;0.00;;
6452;SDS011;3259;51.080;13.712;2023-04-01T18:38:11;0.00;;;0.00;;
6452;SDS011;3259;51.080;13.712;2023-04-01T18:41:10;0.00;;;0.00;;
6452;SDS011;3259;51.080;13.712;2023-04-01T18:44:07;0.00;;;0.00;;
6452;SDS011;3259;51.080;13.712;2023-04-01T18:47:11;0.47;;;0.00;;
6452;SDS011;3259;51.080;13.712;2023-04-01T18:50:13;0.00;;;0.00;;
6452;SDS011;3259;51.080;13.712;2023-04-01T18:53:12;0.00;;;0.00;;
6452;SDS011;3259;51.080;13.712;2023-04-01T18:56:06;0.00;;;0.00;;
6452;SDS011;3259;51.080;13.712;2023-04-01T18:58:58;0.20;;;0.00;;
6452;SDS011;3259;51.080;13.712;2023-04-01T19:01:52;0.00;;;0.00;;
6452;SDS011;3259;51.080;13.712;2023-04-01T19:04:52;0.00;;;0.00;;
6452;SDS011;3259;51.080;13.712;2023-04-01T19:07:46;0.13;;;0.00;;
6452;SDS011;3259;51.080;13.712;2023-04-01T19:10:37;0.00;;;0.00;;
6452;SDS011;3259;51.080;13.712;2023-04-01T19:13:30;0.00;;;0.00;;
6452;SDS011;3259;51.080;13.712;2023-04-01T19:16:26;0.00;;;0.00;;
6452;SDS011;3259;51.080;13.712;2023-04-01T19:19:27;0.00;;;0.00;;
6452;SDS011;3259;51.080;13.712;2023-04-01T19:22:33;0.00;;;0.00;;
6452;SDS011;3259;51.080;13.712;2023-04-01T19:25:34;0.00;;;0.00;;
6452;SDS011;3259;51.080;13.712;2023-04-01T19:28:31;0.00;;;0.00;;
6452;SDS011;3259;51.080;13.712;2023-04-01T19:31:31;0.00;;;0.00;;
6452;SDS011;3259;51.080;13.712;2023-04-01T19:34:27;0.30;;;0.00;;